Time;durP1;ratioP1;P1;durP2;ratioP2;P2;SDS_P1;SDS_P2;PMS_P1;PMS_P2;Temp;Humidity;BMP_temperature;BMP_pressure;BME280_temperature;BME280_humidity;BME280_pressure;Samples;Min_cycle;Max_cycle;Signal;HPM_P1;HPM_P2
2022/09/05 00:00:13;;;;;;;9.27;3.08;;;19.70;97.50;;;;;;5003432;28;20046;-80
2022/09/05 00:02:54;;;;;;;5.53;2.80;;;19.70;97.60;;;;;;4984435;28;20052;-77
2022/09/05 00:05:33;;;;;;;6.47;2.88;;;19.70;97.70;;;;;;4983915;28;20081;-78
2022/09/05 00:08:22;;;;;;;3.55;2.70;;;19.70;97.80;;;;;;4970017;28;20069;-78
2022/09/05 00:11:19;;;;;;;4.20;2.90;;;19.70;97.90;;;;;;4987811;28;20053;-78
2022/09/05 00:14:04;;;;;;;6.28;3.10;;;19.60;97.80;;;;;;4981169;28;20145;-79
2022/09/05 00:16:59;;;;;;;7.68;3.10;;;19.50;97.90;;;;;;4983386;28;20121;-78
2022/09/05 00:19:26;;;;;;;8.25;2.90;;;19.50;98.20;;;;;;4980074;28;20054;-79
2022/09/05 00:22:10;;;;;;;6.40;3.08;;;19.50;98.10;;;;;;4985520;28;20038;-79
2022/09/05 00:24:38;;;;;;;6.30;3.20;;;19.50;98.20;;;;;;4982689;28;20085;-78
2022/09/05 00:27:32;;;;;;;6.93;3.00;;;19.40;98.20;;;;;;4982586;28;20038;-78
2022/09/05 00:30:17;;;;;;;4.80;3.15;;;19.40;98.30;;;;;;5001493;28;20057;-79
2022/09/05 00:33:04;;;;;;;7.72;3.40;;;19.40;98.40;;;;;;5002285;28;20038;-77
2022/09/05 00:35:41;;;;;;;3.42;2.80;;;19.40;98.40;;;;;;4982007;28;20038;-76
2022/09/05 00:38:33;;;;;;;7.70;2.88;;;19.30;98.50;;;;;;4987256;28;20034;-78
2022/09/05 00:41:05;;;;;;;5.20;3.00;;;19.30;98.70;;;;;;4982440;28;20442;-80
2022/09/05 00:43:40;;;;;;;3.88;2.88;;;19.30;98.60;;;;;;4971756;28;20042;-79
2022/09/05 00:46:12;;;;;;;;;;;19.30;98.70;;;;;;5003320;28;20493;-77
2022/09/05 00:49:06;;;;;;;4.05;3.03;;;19.30;98.80;;;;;;4988111;28;20023;-78
2022/09/05 00:51:52;;;;;;;4.90;2.92;;;19.20;98.80;;;;;;4982586;28;20046;-77
2022/09/05 00:54:43;;;;;;;6.85;3.40;;;19.20;98.80;;;;;;5002065;28;21035;-77
2022/09/05 00:57:18;;;;;;;7.13;3.33;;;19.20;98.90;;;;;;4993299;28;20524;-78
2022/09/05 01:00:07;;;;;;;4.95;3.10;;;19.10;99.10;;;;;;5001861;28;20041;-78
2022/09/05 01:03:11;;;;;;;6.35;3.30;;;19.10;99.10;;;;;;5005182;28;20054;-79
2022/09/05 01:09:15;;;;;;;6.10;3.20;;;19.10;99.20;;;;;;5025712;28;20053;-73
2022/09/05 01:12:00;;;;;;;9.70;3.42;;;19.10;99.20;;;;;;4986611;28;20050;-79
2022/09/05 01:14:47;;;;;;;6.03;3.72;;;19.00;99.30;;;;;;4994643;28;20049;-78
2022/09/05 01:17:28;;;;;;;6.72;3.55;;;19.00;99.30;;;;;;5008744;28;20057;-78
2022/09/05 01:20:11;;;;;;;9.50;3.80;;;18.90;99.50;;;;;;5009682;28;20539;-78
2022/09/05 01:22:58;;;;;;;7.35;3.55;;;18.90;99.50;;;;;;4985642;28;21653;-79
2022/09/05 01:25:27;;;;;;;6.22;3.60;;;18.80;99.60;;;;;;5004152;28;20136;-78
2022/09/05 01:27:57;;;;;;;8.55;3.70;;;18.80;99.70;;;;;;4986221;28;20531;-78
2022/09/05 01:30:39;;;;;;;5.57;3.40;;;18.80;99.70;;;;;;4999599;28;20488;-78
2022/09/05 01:33:23;;;;;;;9.63;3.40;;;18.80;99.80;;;;;;4986721;28;20123;-78
2022/09/05 01:36:13;;;;;;;6.28;3.30;;;18.80;99.80;;;;;;4988150;28;20058;-79
2022/09/05 01:38:54;;;;;;;6.50;3.90;;;18.70;99.90;;;;;;4998311;28;20649;-77
2022/09/05 01:41:41;;;;;;;5.90;3.67;;;18.60;99.90;;;;;;4998599;28;20060;-79
2022/09/05 01:44:27;;;;;;;8.93;3.75;;;18.60;99.90;;;;;;5001762;28;20057;-78
2022/09/05 01:47:26;;;;;;;9.75;3.90;;;18.60;99.90;;;;;;4983914;28;20038;-77
2022/09/05 01:50:16;;;;;;;8.88;3.95;;;18.60;99.90;;;;;;4998160;28;20038;-81
2022/09/05 01:53:07;;;;;;;8.25;4.00;;;18.60;99.90;;;;;;5019405;28;20042;-78
2022/09/05 01:55:41;;;;;;;7.15;3.53;;;18.50;99.90;;;;;;4980767;28;20041;-80
2022/09/05 01:58:25;;;;;;;11.52;4.03;;;18.50;99.90;;;;;;4998509;28;20067;-77
2022/09/05 02:01:16;;;;;;;7.25;3.90;;;18.40;99.90;;;;;;5001537;28;20042;-77
2022/09/05 02:04:16;;;;;;;6.55;4.03;;;18.50;99.90;;;;;;5002164;28;20050;-78
2022/09/05 02:07:08;;;;;;;6.45;3.97;;;18.40;99.90;;;;;;5004885;28;20107;-80
2022/09/05 02:09:40;;;;;;;6.18;3.83;;;18.40;99.90;;;;;;4968533;28;20056;-79
2022/09/05 02:12:14;;;;;;;7.72;3.78;;;18.40;99.90;;;;;;4972049;28;20445;-78
2022/09/05 02:14:50;;;;;;;10.80;4.45;;;18.40;99.90;;;;;;4982219;28;20045;-79
2022/09/05 02:17:31;;;;;;;9.18;3.95;;;18.40;99.90;;;;;;4969997;28;20125;-78
2022/09/05 02:20:14;;;;;;;11.50;4.40;;;18.40;99.90;;;;;;4995774;28;20045;-79
2022/09/05 02:26:34;;;;;;;8.25;3.95;;;18.30;99.90;;;;;;5004751;28;20037;-76
2022/09/05 02:29:14;;;;;;;11.82;4.95;;;18.20;99.90;;;;;;5005194;28;20072;-77
2022/09/05 02:31:40;;;;;;;8.02;4.07;;;18.20;99.90;;;;;;4984214;28;20513;-78
2022/09/05 02:34:30;;;;;;;8.77;4.70;;;18.10;99.90;;;;;;4987124;28;20069;-79
2022/09/05 02:37:22;;;;;;;8.27;4.03;;;18.20;99.90;;;;;;4969104;28;20042;-77
2022/09/05 02:39:57;;;;;;;7.72;4.40;;;18.10;99.90;;;;;;4964353;28;20052;-78
2022/09/05 02:42:59;;;;;;;11.65;4.07;;;18.10;99.90;;;;;;4973840;28;20124;-79
2022/09/05 02:45:40;;;;;;;7.13;4.50;;;18.00;99.90;;;;;;4972523;28;20096;-80
2022/09/05 02:48:23;;;;;;;14.50;4.60;;;18.10;99.90;;;;;;4998516;28;20131;-77
2022/09/05 02:50:55;;;;;;;6.65;4.50;;;18.00;99.90;;;;;;5000281;28;20054;-77
2022/09/05 02:53:22;;;;;;;10.18;4.25;;;17.90;99.90;;;;;;4987818;28;20053;-77
2022/09/05 02:56:03;;;;;;;12.32;4.65;;;17.90;99.90;;;;;;4982236;28;20034;-77
2022/09/05 02:58:31;;;;;;;9.63;4.70;;;17.90;99.90;;;;;;5004650;28;20049;-79
2022/09/05 03:01:10;;;;;;;14.75;5.00;;;17.80;99.90;;;;;;5003831;28;20053;-76
2022/09/05 03:03:57;;;;;;;11.75;4.53;;;17.80;99.90;;;;;;4986659;28;20207;-77
2022/09/05 03:06:32;;;;;;;7.68;4.75;;;17.80;99.90;;;;;;5002526;28;20034;-77
2022/09/05 03:09:18;;;;;;;6.28;4.43;;;17.80;99.90;;;;;;5000012;28;20129;-77
2022/09/05 03:12:22;;;;;;;7.40;4.43;;;17.70;99.90;;;;;;4999150;28;20053;-77
2022/09/05 03:15:39;;;;;;;10.02;4.82;;;17.70;99.90;;;;;;5007258;28;20550;-77
2022/09/05 03:18:22;;;;;;;6.78;4.50;;;17.70;99.90;;;;;;5006063;28;20468;-79
2022/09/05 03:21:01;;;;;;;8.48;4.82;;;17.60;99.90;;;;;;4987869;28;20041;-78
2022/09/05 03:23:51;;;;;;;9.00;4.82;;;17.60;99.90;;;;;;5015981;28;20091;-76
2022/09/05 03:26:42;;;;;;;9.93;4.68;;;17.50;99.90;;;;;;5005113;28;20056;-77
2022/09/05 03:29:29;;;;;;;10.40;4.60;;;17.50;99.90;;;;;;5005265;28;20445;-78
2022/09/05 03:32:30;;;;;;;7.07;4.40;;;17.50;99.90;;;;;;4991203;28;20512;-78
2022/09/05 03:35:12;;;;;;;9.95;4.88;;;17.50;99.90;;;;;;5009238;28;20038;-79
2022/09/05 03:37:50;;;;;;;8.50;4.63;;;17.40;99.90;;;;;;4991806;28;20053;-78
2022/09/05 03:40:35;;;;;;;11.15;4.93;;;17.40;99.90;;;;;;4988652;28;20489;-78
2022/09/05 03:43:34;;;;;;;8.88;4.38;;;17.30;99.90;;;;;;5014533;28;20052;-77
2022/09/05 03:46:16;;;;;;;11.18;4.57;;;17.30;99.90;;;;;;5018412;28;20053;-76
2022/09/05 03:48:59;;;;;;;12.35;4.80;;;17.30;99.90;;;;;;5026482;28;20093;-74
2022/09/05 03:51:39;;;;;;;10.85;4.75;;;17.30;99.90;;;;;;5011675;28;20140;-79
2022/09/05 03:54:57;;;;;;;8.32;4.90;;;17.30;99.90;;;;;;5003632;28;20050;-79
2022/09/05 03:57:36;;;;;;;9.82;4.60;;;17.30;99.90;;;;;;5004545;28;20053;-77
2022/09/05 04:00:08;;;;;;;8.30;4.95;;;17.30;99.90;;;;;;4984314;28;20080;-76
2022/09/05 04:03:02;;;;;;;5.88;4.68;;;17.20;99.90;;;;;;5006490;28;20045;-79
2022/09/05 04:05:41;;;;;;;6.28;4.78;;;17.20;99.90;;;;;;4989006;28;20056;-79
2022/09/05 04:08:40;;;;;;;7.95;4.57;;;17.20;99.90;;;;;;5005242;28;20052;-77
2022/09/05 04:11:09;;;;;;;11.98;4.97;;;17.20;99.90;;;;;;4991122;28;20476;-79
2022/09/05 04:13:44;;;;;;;9.35;4.90;;;17.10;99.90;;;;;;5003049;28;20100;-78
2022/09/05 04:16:41;;;;;;;10.48;5.38;;;17.10;99.90;;;;;;5002968;28;20391;-76
2022/09/05 04:19:14;;;;;;;10.52;5.28;;;17.10;99.90;;;;;;4990880;28;20124;-79
2022/09/05 04:21:56;;;;;;;10.07;4.95;;;17.10;99.90;;;;;;4987683;28;20057;-78
2022/09/05 04:24:35;;;;;;;9.90;5.22;;;17.00;99.90;;;;;;5005702;28;20038;-79
2022/09/05 04:27:19;;;;;;;11.60;4.78;;;17.00;99.90;;;;;;5003059;28;20464;-77
2022/09/05 04:30:04;;;;;;;10.02;4.82;;;16.90;99.90;;;;;;4984414;28;20049;-77
2022/09/05 04:32:36;;;;;;;8.48;4.78;;;16.90;99.90;;;;;;4998625;28;20041;-77
2022/09/05 04:35:29;;;;;;;9.32;4.65;;;16.90;99.90;;;;;;4992611;28;20060;-76
2022/09/05 04:38:13;;;;;;;9.65;4.95;;;16.80;99.90;;;;;;4984358;28;20514;-78
2022/09/05 04:40:59;;;;;;;11.38;5.03;;;16.80;99.90;;;;;;5006851;28;20042;-80
2022/09/05 04:43:43;;;;;;;7.72;4.90;;;16.80;99.90;;;;;;4987073;28;20080;-78
2022/09/05 04:46:19;;;;;;;7.25;4.70;;;16.80;99.90;;;;;;4994707;28;20085;-78
2022/09/05 04:49:05;;;;;;;9.05;5.07;;;16.80;99.90;;;;;;4995047;28;20346;-78
2022/09/05 04:52:25;;;;;;;8.68;5.03;;;16.80;99.90;;;;;;5008220;28;20201;-77
2022/09/05 04:55:12;;;;;;;8.02;4.80;;;16.80;99.90;;;;;;4989490;28;20038;-76
2022/09/05 04:57:47;;;;;;;10.23;4.85;;;16.70;99.90;;;;;;5000641;28;20119;-78
2022/09/05 05:00:25;;;;;;;8.38;4.85;;;16.70;99.90;;;;;;5021658;28;20424;-79
2022/09/05 05:03:03;;;;;;;6.07;4.68;;;16.70;99.90;;;;;;5008941;28;20053;-77
2022/09/05 05:05:50;;;;;;;11.50;4.68;;;16.60;99.90;;;;;;5003578;28;20162;-79
2022/09/05 05:08:38;;;;;;;14.20;5.30;;;16.60;99.90;;;;;;4995201;28;20109;-76
2022/09/05 05:11:26;;;;;;;15.07;4.97;;;16.60;99.90;;;;;;5002828;28;20081;-77
2022/09/05 05:13:59;;;;;;;9.57;4.60;;;16.60;99.90;;;;;;4994564;28;20045;-78
2022/09/05 05:16:27;;;;;;;7.20;5.00;;;16.60;99.90;;;;;;5007191;28;20057;-78
2022/09/05 05:19:24;;;;;;;11.02;5.00;;;16.60;99.90;;;;;;4995959;28;20479;-77
2022/09/05 05:21:56;;;;;;;7.65;4.90;;;16.60;99.90;;;;;;4948757;28;20051;-79
2022/09/05 05:24:28;;;;;;;7.00;4.80;;;16.70;99.90;;;;;;4949448;28;20462;-77
2022/09/05 05:27:09;;;;;;;8.00;4.82;;;16.70;99.90;;;;;;4944127;28;20160;-77
2022/09/05 05:29:37;;;;;;;8.90;5.05;;;16.70;99.90;;;;;;4929955;28;20046;-76
2022/09/05 05:32:04;;;;;;;11.73;4.80;;;16.70;99.90;;;;;;4927530;28;20110;-79
2022/09/05 05:35:03;;;;;;;7.38;5.10;;;16.70;99.90;;;;;;4914855;28;20050;-81
2022/09/05 05:37:36;;;;;;;5.97;4.65;;;16.80;99.90;;;;;;4931002;28;20047;-80
2022/09/05 05:40:09;;;;;;;9.30;5.07;;;17.00;99.90;;;;;;4945167;28;20101;-80
2022/09/05 05:42:39;;;;;;;8.18;5.38;;;17.00;99.90;;;;;;4937794;28;20435;-80
2022/09/05 05:45:27;;;;;;;14.00;4.68;;;16.90;99.90;;;;;;4927268;28;20086;-79
2022/09/05 05:48:23;;;;;;;10.43;5.00;;;17.00;99.90;;;;;;4941932;28;20047;-80
2022/09/05 05:51:12;;;;;;;9.95;5.22;;;17.00;99.90;;;;;;4926832;28;20067;-82
2022/09/05 05:53:52;;;;;;;8.77;5.00;;;17.10;99.90;;;;;;4911239;28;20506;-80
2022/09/05 05:56:26;;;;;;;10.02;5.38;;;17.10;99.90;;;;;;4921076;29;20052;-80
2022/09/05 05:59:28;;;;;;;9.52;5.20;;;17.10;99.90;;;;;;4969534;28;20076;-80
2022/09/05 06:02:17;;;;;;;8.50;5.10;;;17.10;99.90;;;;;;4965962;28;20045;-80
2022/09/05 06:05:04;;;;;;;8.20;5.18;;;17.10;99.90;;;;;;4984729;28;20085;-80
2022/09/05 06:07:48;;;;;;;8.60;4.82;;;17.20;99.90;;;;;;4987247;28;20038;-80
2022/09/05 06:11:02;;;;;;;9.23;5.30;;;17.30;99.90;;;;;;4972687;28;20058;-80
2022/09/05 06:13:38;;;;;;;9.00;5.43;;;17.30;99.90;;;;;;4911366;29;20054;-81
2022/09/05 06:16:23;;;;;;;10.02;5.43;;;17.40;99.90;;;;;;4905028;29;20101;-81
2022/09/05 06:19:22;;;;;;;7.55;5.22;;;17.40;99.90;;;;;;4920948;29;20116;-79
2022/09/05 06:22:06;;;;;;;6.22;4.57;;;17.40;99.90;;;;;;4904681;29;20173;-79
2022/09/05 06:25:41;;;;;;;8.68;4.80;;;17.50;99.90;;;;;;4936642;29;20176;-79
2022/09/05 06:28:42;;;;;;;8.90;5.35;;;17.60;99.90;;;;;;4932837;29;20541;-76
2022/09/05 06:31:36;;;;;;;8.13;5.25;;;17.70;99.90;;;;;;4923869;29;20597;-78
2022/09/05 06:34:22;;;;;;;8.77;4.78;;;17.90;99.90;;;;;;4898267;29;20073;-78
2022/09/05 06:37:36;;;;;;;10.38;4.53;;;18.00;99.90;;;;;;4889496;29;20052;-79
2022/09/05 06:40:20;;;;;;;7.05;4.18;;;18.20;99.90;;;;;;4926462;28;20122;-78
2022/09/05 06:42:48;;;;;;;11.40;5.20;;;18.40;99.90;;;;;;4935541;28;20533;-77
2022/09/05 06:45:38;;;;;;;6.97;4.85;;;18.50;99.90;;;;;;4987267;28;20054;-80
2022/09/05 06:48:22;;;;;;;7.82;4.80;;;18.70;99.90;;;;;;4980362;28;20097;-79
2022/09/05 06:51:08;;;;;;;9.10;5.10;;;18.70;99.90;;;;;;4988230;28;20093;-81
2022/09/05 06:53:54;;;;;;;6.63;5.13;;;18.70;99.90;;;;;;4975254;28;20088;-81
2022/09/05 06:56:51;;;;;;;8.38;5.35;;;18.80;99.90;;;;;;4972864;28;20236;-80
2022/09/05 06:59:34;;;;;;;9.10;5.25;;;18.80;99.90;;;;;;4985104;28;20038;-80
2022/09/05 07:02:10;;;;;;;13.82;5.57;;;18.90;99.90;;;;;;5000478;28;20599;-82
2022/09/05 07:04:39;;;;;;;11.98;5.15;;;18.90;99.90;;;;;;4972658;28;20551;-77
2022/09/05 07:07:09;;;;;;;7.72;4.80;;;18.90;99.90;;;;;;4974816;28;20161;-76
2022/09/05 07:09:52;;;;;;;8.60;5.05;;;18.90;99.90;;;;;;4975580;28;20049;-77
2022/09/05 07:12:27;;;;;;;8.43;5.25;;;19.00;99.90;;;;;;4978740;28;20061;-77
2022/09/05 07:14:53;;;;;;;;;;;19.00;99.90;;;;;;4982109;28;20045;-76
2022/09/05 07:17:33;;;;;;;7.97;5.32;;;19.00;99.90;;;;;;5010457;28;19975;-76
2022/09/05 07:20:04;;;;;;;8.02;5.20;;;19.10;99.90;;;;;;4997652;28;20061;-75
2022/09/05 07:22:45;;;;;;;9.52;5.18;;;19.20;99.90;;;;;;4996863;28;20133;-76
2022/09/05 07:25:16;;;;;;;8.57;5.20;;;19.30;99.90;;;;;;5007224;28;20062;-77
2022/09/05 07:27:57;;;;;;;9.88;5.32;;;19.30;99.90;;;;;;4982555;28;20133;-76
2022/09/05 07:30:23;;;;;;;8.48;5.18;;;19.40;99.90;;;;;;5000917;28;20049;-78
2022/09/05 07:32:52;;;;;;;7.32;5.22;;;19.50;99.90;;;;;;4999285;28;20500;-77
2022/09/05 07:35:28;;;;;;;13.80;4.68;;;19.50;99.90;;;;;;5009075;28;20049;-78
2022/09/05 07:38:04;;;;;;;8.95;4.85;;;19.60;99.90;;;;;;5008541;28;20048;-79
2022/09/05 07:40:37;;;;;;;13.07;5.43;;;19.70;99.90;;;;;;4989440;28;20048;-76
2022/09/05 07:43:23;;;;;;;7.50;4.95;;;19.90;99.90;;;;;;4988514;28;20052;-81
2022/09/05 07:46:14;;;;;;;9.40;5.30;;;19.90;99.90;;;;;;4987967;28;20046;-76
2022/09/05 07:48:59;;;;;;;8.05;5.03;;;20.00;99.90;;;;;;5005257;28;20149;-76
2022/09/05 07:51:28;;;;;;;10.15;4.95;;;20.10;99.90;;;;;;5001248;28;20413;-78
2022/09/05 07:53:57;;;;;;;12.70;5.10;;;20.20;99.90;;;;;;5000429;28;20057;-76
2022/09/05 07:56:47;;;;;;;9.27;5.28;;;20.30;99.90;;;;;;4999661;28;20042;-77
2022/09/05 07:59:14;;;;;;;8.57;5.05;;;20.40;99.90;;;;;;4987018;28;20557;-79
2022/09/05 08:01:46;;;;;;;13.85;5.07;;;20.50;99.90;;;;;;4981671;28;20177;-79
2022/09/05 08:04:30;;;;;;;8.68;5.00;;;20.60;99.90;;;;;;4985737;28;21697;-77
2022/09/05 08:06:59;;;;;;;7.93;4.97;;;20.70;99.90;;;;;;4991397;28;20497;-77
2022/09/05 08:09:36;;;;;;;11.57;4.88;;;20.80;99.90;;;;;;4980965;28;21570;-78
2022/09/05 08:12:10;;;;;;;7.00;4.70;;;20.90;99.90;;;;;;4988823;28;20053;-77
2022/09/05 08:15:02;;;;;;;15.95;4.82;;;21.00;99.90;;;;;;4990465;28;20573;-77
2022/09/05 08:17:27;;;;;;;12.77;5.13;;;21.20;99.90;;;;;;4981658;28;20050;-77
2022/09/05 08:20:06;;;;;;;6.50;4.72;;;21.30;99.90;;;;;;4995804;28;20128;-77
2022/09/05 08:22:46;;;;;;;11.65;4.80;;;21.40;99.90;;;;;;4997522;28;20940;-75
2022/09/05 08:25:19;;;;;;;9.98;4.90;;;21.50;99.90;;;;;;5012870;28;20442;-76
2022/09/05 08:28:23;;;;;;;7.30;4.60;;;21.70;99.90;;;;;;4992464;28;20331;-75
2022/09/05 08:31:00;;;;;;;6.82;4.70;;;21.80;99.90;;;;;;4989506;28;20061;-75
2022/09/05 08:33:31;;;;;;;8.77;4.82;;;21.90;99.90;;;;;;5012254;28;20462;-77
2022/09/05 08:36:30;;;;;;;8.48;4.65;;;21.90;99.90;;;;;;5016286;28;20700;-76
2022/09/05 08:39:01;;;;;;;11.45;4.65;;;21.90;99.90;;;;;;5020569;28;20093;-76
2022/09/05 08:41:51;;;;;;;9.27;5.20;;;22.00;99.90;;;;;;4994377;28;20083;-76
2022/09/05 08:44:25;;;;;;;8.13;4.53;;;22.10;99.90;;;;;;4995143;28;20115;-76
2022/09/05 08:47:00;;;;;;;5.25;4.20;;;22.20;99.90;;;;;;4995683;28;20038;-75
2022/09/05 08:49:34;;;;;;;;;;;22.20;99.90;;;;;;4996138;28;20068;-76
2022/09/05 08:52:06;;;;;;;6.75;4.43;;;22.30;99.90;;;;;;4995623;28;19922;-76
2022/09/05 08:54:32;;;;;;;6.38;4.10;;;22.40;99.90;;;;;;5010132;28;20107;-77
2022/09/05 08:57:20;;;;;;;9.18;4.53;;;22.50;99.90;;;;;;5011846;28;20050;-76
2022/09/05 09:00:05;;;;;;;9.77;4.53;;;22.70;99.90;;;;;;5011901;28;20050;-76
2022/09/05 09:02:55;;;;;;;7.25;4.10;;;22.80;99.90;;;;;;5012373;28;20357;-76
2022/09/05 09:05:43;;;;;;;9.05;4.50;;;23.00;99.90;;;;;;4997157;28;20322;-76
2022/09/05 09:08:19;;;;;;;10.05;4.28;;;23.10;99.90;;;;;;5016698;28;20057;-75
2022/09/05 09:10:56;;;;;;;11.65;4.43;;;23.30;99.90;;;;;;4996980;28;20058;-77
2022/09/05 09:13:38;;;;;;;6.47;3.90;;;23.40;99.90;;;;;;4981495;28;20037;-77
2022/09/05 09:16:14;;;;;;;6.10;3.97;;;23.50;99.90;;;;;;4976819;28;20054;-76
2022/09/05 09:18:48;;;;;;;5.28;3.63;;;23.60;99.90;;;;;;4975931;28;20486;-76
2022/09/05 09:21:26;;;;;;;7.55;3.55;;;23.80;99.90;;;;;;4980955;28;20054;-76
2022/09/05 09:24:07;;;;;;;10.20;4.22;;;23.80;99.90;;;;;;5006682;28;20118;-76
2022/09/05 09:26:41;;;;;;;10.73;4.25;;;24.00;99.90;;;;;;4995183;28;20073;-76
2022/09/05 09:29:09;;;;;;;8.93;3.92;;;24.10;99.90;;;;;;4991118;28;20049;-75
2022/09/05 09:31:53;;;;;;;7.70;3.78;;;24.00;99.90;;;;;;4974341;28;20055;-76
2022/09/05 09:34:25;;;;;;;7.55;3.60;;;24.10;99.90;;;;;;5009308;28;20124;-76
2022/09/05 09:37:07;;;;;;;8.38;4.20;;;24.10;99.90;;;;;;5011175;28;20088;-75
2022/09/05 09:39:55;;;;;;;5.93;3.85;;;24.40;99.90;;;;;;5009310;28;20050;-75
2022/09/05 09:42:50;;;;;;;6.97;3.92;;;24.50;99.90;;;;;;4974507;28;20483;-76
2022/09/05 09:45:27;;;;;;;6.95;4.13;;;24.50;99.60;;;;;;4992082;28;20137;-75
2022/09/05 09:48:12;;;;;;;8.32;3.72;;;24.50;99.50;;;;;;5008386;28;20416;-76
2022/09/05 09:50:49;;;;;;;4.53;3.30;;;24.60;99.30;;;;;;4989353;28;20393;-75
2022/09/05 09:53:41;;;;;;;7.35;3.10;;;24.70;99.10;;;;;;4992867;28;20042;-76
2022/09/05 09:56:10;;;;;;;10.63;3.30;;;24.90;99.10;;;;;;4977284;28;20068;-76
2022/09/05 09:58:47;;;;;;;5.82;3.20;;;25.10;99.00;;;;;;4992198;28;20141;-76
2022/09/05 10:01:37;;;;;;;8.60;3.05;;;25.30;98.80;;;;;;4990820;28;20060;-77
2022/09/05 10:04:20;;;;;;;4.57;2.50;;;25.40;98.10;;;;;;4993031;28;20096;-75
2022/09/05 10:06:57;;;;;;;4.68;2.80;;;25.60;98.10;;;;;;4993114;28;20061;-76
2022/09/05 10:09:45;;;;;;;8.52;3.15;;;25.80;98.00;;;;;;4977060;28;20065;-77
2022/09/05 10:12:48;;;;;;;5.35;2.85;;;25.90;97.90;;;;;;4990586;28;20614;-76
2022/09/05 10:15:20;;;;;;;5.60;2.85;;;26.10;98.20;;;;;;4977061;28;20081;-76
2022/09/05 10:18:10;;;;;;;6.40;2.60;;;26.20;97.50;;;;;;4993291;28;20046;-76
2022/09/05 10:20:42;;;;;;;5.88;2.63;;;26.40;97.00;;;;;;4993201;28;20137;-77
2022/09/05 10:23:08;;;;;;;6.85;2.63;;;26.60;96.80;;;;;;4974139;28;20057;-76
2022/09/05 10:25:48;;;;;;;7.18;2.75;;;26.80;97.00;;;;;;4975531;28;20046;-76
2022/09/05 10:28:43;;;;;;;11.10;2.50;;;27.00;96.30;;;;;;4981506;28;20114;-76
2022/09/05 10:31:20;;;;;;;6.75;2.78;;;27.20;96.60;;;;;;4998491;28;20173;-77
2022/09/05 10:34:02;;;;;;;4.47;2.15;;;27.40;96.20;;;;;;5008219;28;20057;-78
2022/09/05 10:36:31;;;;;;;6.18;2.38;;;27.60;95.30;;;;;;5014329;28;20037;-76
2022/09/05 10:39:15;;;;;;;5.25;2.00;;;27.80;95.20;;;;;;5003179;28;20054;-76
2022/09/05 10:41:49;;;;;;;6.65;2.50;;;28.00;94.90;;;;;;4994926;28;20129;-77
2022/09/05 10:44:43;;;;;;;11.55;2.20;;;28.10;94.60;;;;;;4997420;28;20084;-77
2022/09/05 10:47:09;;;;;;;11.73;2.50;;;28.10;94.30;;;;;;4992556;28;20290;-77
2022/09/05 10:49:42;;;;;;;4.15;2.03;;;28.30;94.70;;;;;;5006979;28;20042;-76
2022/09/05 10:52:20;;;;;;;9.35;2.45;;;28.50;94.60;;;;;;5001442;28;20037;-76
2022/09/05 10:55:23;;;;;;;6.45;2.20;;;28.70;94.30;;;;;;4996684;28;20055;-76
2022/09/05 10:57:56;;;;;;;8.52;2.72;;;28.80;93.90;;;;;;5008079;28;20120;-77
2022/09/05 11:01:04;;;;;;;10.50;2.22;;;29.10;94.20;;;;;;5007924;28;20117;-78
2022/09/05 11:03:52;;;;;;;7.70;2.22;;;29.10;93.40;;;;;;5017419;28;20033;-76
2022/09/05 11:06:26;;;;;;;3.53;1.92;;;29.20;93.10;;;;;;5004792;28;20049;-78
2022/09/05 11:09:11;;;;;;;6.88;2.17;;;29.20;93.10;;;;;;4997405;28;20089;-75
2022/09/05 11:11:51;;;;;;;9.07;2.30;;;29.50;93.00;;;;;;5013855;28;20046;-77
2022/09/05 11:14:35;;;;;;;9.05;2.28;;;29.60;93.10;;;;;;4983911;28;20496;-77
2022/09/05 11:17:29;;;;;;;6.05;2.20;;;29.70;93.30;;;;;;4995836;28;20053;-77
2022/09/05 11:19:57;;;;;;;6.60;2.53;;;29.80;93.30;;;;;;4993939;28;20412;-77
2022/09/05 11:22:28;;;;;;;4.25;2.28;;;30.10;92.80;;;;;;4994043;28;20050;-78
2022/09/05 11:25:01;;;;;;;5.07;2.05;;;30.40;93.00;;;;;;4977764;28;20502;-77
2022/09/05 11:27:32;;;;;;;4.88;2.20;;;30.20;92.10;;;;;;4993368;28;20449;-77
2022/09/05 11:30:13;;;;;;;7.25;2.42;;;30.20;92.00;;;;;;4993921;28;20050;-77
2022/09/05 11:33:16;;;;;;;8.95;1.90;;;30.40;91.80;;;;;;5009572;28;20044;-77
2022/09/05 11:36:13;;;;;;;7.35;2.20;;;30.50;92.10;;;;;;4993376;28;20042;-78
2022/09/05 11:38:58;;;;;;;4.60;2.13;;;30.60;91.60;;;;;;5012399;28;20100;-78
2022/09/05 11:42:04;;;;;;;4.30;2.40;;;30.90;91.90;;;;;;5013319;28;20212;-78
2022/09/05 11:44:52;;;;;;;7.55;2.10;;;31.00;91.50;;;;;;4978363;28;20043;-76
2022/09/05 11:47:29;;;;;;;4.60;2.10;;;31.40;91.20;;;;;;4979573;28;20046;-77
2022/09/05 11:50:10;;;;;;;4.88;1.90;;;31.60;91.30;;;;;;4988996;28;20043;-76
2022/09/05 11:53:13;;;;;;;4.65;1.98;;;31.80;91.50;;;;;;5011367;28;20456;-77
2022/09/05 11:55:53;;;;;;;6.65;2.00;;;32.00;90.80;;;;;;4994749;28;20501;-79
2022/09/05 11:58:41;;;;;;;3.38;2.00;;;32.10;90.70;;;;;;5011954;28;20125;-79
2022/09/05 12:01:27;;;;;;;5.13;1.88;;;31.80;90.20;;;;;;4999201;28;20089;-78
2022/09/05 12:04:39;;;;;;;5.05;1.67;;;31.80;89.90;;;;;;4996156;28;20469;-78
2022/09/05 12:07:10;;;;;;;3.38;1.70;;;31.70;89.90;;;;;;5015037;28;20156;-78
2022/09/05 12:10:05;;;;;;;7.60;1.98;;;31.80;90.10;;;;;;4998341;28;20064;-78
2022/09/05 12:12:51;;;;;;;6.15;1.85;;;32.10;89.90;;;;;;4974942;28;20058;-78
2022/09/05 12:15:32;;;;;;;6.93;1.98;;;32.30;89.40;;;;;;4956201;28;20177;-77
2022/09/05 12:18:14;;;;;;;8.63;1.90;;;32.50;89.20;;;;;;4940704;28;20430;-78
2022/09/05 12:21:27;;;;;;;6.28;2.10;;;32.80;89.60;;;;;;4967901;28;20422;-78
2022/09/05 12:24:06;;;;;;;8.25;1.73;;;33.00;88.80;;;;;;4899531;29;20071;-78
2022/09/05 12:26:49;;;;;;;2.45;1.65;;;33.00;87.10;;;;;;4897997;29;20044;-79
2022/09/05 12:29:19;;;;;;;2.55;1.52;;;33.50;87.60;;;;;;4914019;29;20094;-78
2022/09/05 12:31:52;;;;;;;2.08;1.70;;;33.10;84.70;;;;;;4899283;29;20059;-77
2022/09/05 12:34:32;;;;;;;3.35;1.60;;;33.20;85.40;;;;;;4915340;29;20068;-78
2022/09/05 12:37:02;;;;;;;4.05;1.75;;;33.40;86.90;;;;;;4918446;29;20139;-78
2022/09/05 12:39:43;;;;;;;3.85;1.85;;;33.10;85.60;;;;;;4893436;29;20511;-78
2022/09/05 12:42:20;;;;;;;4.43;1.90;;;33.00;85.50;;;;;;4894068;29;20135;-77
2022/09/05 12:45:10;;;;;;;4.85;1.90;;;32.80;86.20;;;;;;4880622;29;20483;-78
2022/09/05 12:48:02;;;;;;;2.63;1.92;;;32.80;85.70;;;;;;4899639;29;20087;-78
2022/09/05 12:50:39;;;;;;;4.47;2.10;;;32.40;85.70;;;;;;4909617;29;20150;-78
2022/09/05 12:53:34;;;;;;;5.45;2.17;;;32.10;85.10;;;;;;4936248;29;20133;-78
2022/09/05 12:56:06;;;;;;;8.18;2.00;;;32.40;86.40;;;;;;4936781;28;20051;-78
2022/09/05 12:58:36;;;;;;;8.30;1.90;;;32.10;85.70;;;;;;4939563;28;20502;-78
2022/09/05 13:01:17;;;;;;;9.55;2.63;;;32.50;86.00;;;;;;4982902;28;20058;-78
2022/09/05 13:04:18;;;;;;;5.88;2.10;;;32.70;87.00;;;;;;4995859;28;20128;-78
2022/09/05 13:06:52;;;;;;;6.70;2.10;;;33.00;86.00;;;;;;4995787;28;20393;-78
2022/09/05 13:09:26;;;;;;;6.82;2.30;;;32.40;85.00;;;;;;4994988;28;20046;-78
2022/09/05 13:12:02;;;;;;;7.10;2.30;;;31.90;85.40;;;;;;5006655;28;20389;-78
2022/09/05 13:14:35;;;;;;;7.15;1.90;;;31.70;86.00;;;;;;4975499;28;20533;-78
2022/09/05 13:17:05;;;;;;;3.90;2.13;;;31.60;86.30;;;;;;4993371;28;20108;-78
2022/09/05 13:19:44;;;;;;;8.25;2.13;;;32.00;86.10;;;;;;4975784;28;20054;-79
2022/09/05 13:22:13;;;;;;;3.83;2.03;;;32.70;85.80;;;;;;4975567;28;20054;-78
2022/09/05 13:24:44;;;;;;;5.65;2.30;;;33.40;86.70;;;;;;4992137;28;20385;-79
2022/09/05 13:27:14;;;;;;;7.72;2.15;;;33.90;85.00;;;;;;5009490;28;20108;-79
2022/09/05 13:29:51;;;;;;;3.72;1.98;;;34.30;85.00;;;;;;4993732;28;20046;-79
2022/09/05 13:32:24;;;;;;;3.53;1.90;;;34.60;84.20;;;;;;5011502;28;20108;-78
2022/09/05 13:34:59;;;;;;;4.28;2.15;;;35.00;83.30;;;;;;5027859;28;20125;-78
2022/09/05 13:37:33;;;;;;;4.13;1.90;;;34.60;82.00;;;;;;5008558;28;20038;-78
2022/09/05 13:40:23;;;;;;;7.65;1.83;;;34.50;81.30;;;;;;4990468;28;20046;-78
2022/09/05 13:43:25;;;;;;;4.15;2.13;;;34.90;82.30;;;;;;4979456;28;20087;-78
2022/09/05 13:46:03;;;;;;;5.88;1.75;;;34.70;81.70;;;;;;4995012;28;20100;-78
2022/09/05 13:49:04;;;;;;;6.13;2.28;;;34.30;80.20;;;;;;4994211;28;20044;-79
2022/09/05 13:52:08;;;;;;;7.07;1.90;;;34.40;81.00;;;;;;4991446;28;20038;-79
2022/09/05 13:54:41;;;;;;;6.78;2.17;;;34.50;81.30;;;;;;5004028;28;20578;-78
2022/09/05 13:57:18;;;;;;;7.82;2.10;;;33.80;81.80;;;;;;5010024;28;20493;-79
2022/09/05 14:00:16;;;;;;;7.07;2.20;;;34.20;82.00;;;;;;4993321;28;20477;-79
2022/09/05 14:03:18;;;;;;;2.83;1.77;;;34.50;81.60;;;;;;5009190;28;20056;-78
2022/09/05 14:05:57;;;;;;;4.53;1.90;;;33.90;79.70;;;;;;5011045;28;20092;-77
2022/09/05 14:08:41;;;;;;;4.70;1.77;;;33.90;81.50;;;;;;5004882;28;20486;-79
2022/09/05 14:11:35;;;;;;;2.88;1.80;;;33.80;81.30;;;;;;4990971;28;20564;-79